createdAt,value
2018-10-19T00:01:39.233Z,26.23
2018-10-19T00:04:08.910Z,26.57
2018-10-19T00:06:39.024Z,26.57
2018-10-19T00:09:10.408Z,26.80
2018-10-19T00:11:40.207Z,25.03
2018-10-19T00:14:10.031Z,29.37
2018-10-19T00:16:39.795Z,27.10
2018-10-19T00:19:09.844Z,27.07
2018-10-19T00:21:39.589Z,28.93
2018-10-19T00:24:09.356Z,27.70
2018-10-19T00:26:39.211Z,24.87
2018-10-19T00:29:09.028Z,29.43
2018-10-19T00:31:39.186Z,27.73
2018-10-19T00:34:09.176Z,28.80
2018-10-19T00:36:39.328Z,32.93
2018-10-19T00:39:11.430Z,25.27
2018-10-19T00:41:41.712Z,27.90
2018-10-19T00:44:11.851Z,25.50
2018-10-19T00:46:41.555Z,27.30
2018-10-19T00:49:11.303Z,26.33
2018-10-19T00:51:41.189Z,30.33
2018-10-19T00:54:10.967Z,27.70
2018-10-19T00:56:40.775Z,29.23
2018-10-19T00:59:10.654Z,25.10
2018-10-19T01:01:40.383Z,25.90
2018-10-19T01:04:10.150Z,25.10
2018-10-19T01:06:39.905Z,24.80
2018-10-19T01:09:10.335Z,24.50
2018-10-19T01:11:40.158Z,25.10
2018-10-19T01:14:09.961Z,30.60
2018-10-19T01:16:39.864Z,25.88
2018-10-19T01:19:09.645Z,26.45
2018-10-19T01:21:39.393Z,25.30
2018-10-19T01:24:09.235Z,27.00
2018-10-19T01:26:39.021Z,30.17
2018-10-19T01:29:08.811Z,24.50
2018-10-19T01:31:39.960Z,26.05
2018-10-19T01:34:09.992Z,24.25
2018-10-19T01:36:43.259Z,27.27
2018-10-19T01:39:13.681Z,24.45
2018-10-19T01:41:43.973Z,24.30
2018-10-19T01:44:13.672Z,23.42
2018-10-19T01:46:50.444Z,29.55
2018-10-19T01:49:20.869Z,35.55
2018-10-19T01:51:50.587Z,29.65
2018-10-19T01:54:20.303Z,25.82
2018-10-19T01:56:50.015Z,24.45
2018-10-19T01:59:19.743Z,23.18
2018-10-19T02:01:49.501Z,27.70
2018-10-19T02:04:19.279Z,25.55
2018-10-19T02:06:49.134Z,25.08
2018-10-19T02:09:18.821Z,24.37
2018-10-19T02:11:48.592Z,30.27
2018-10-19T02:14:18.400Z,27.30
2018-10-19T02:16:48.225Z,22.60
2018-10-19T02:19:18.077Z,29.40
2018-10-19T02:21:47.831Z,28.25
2018-10-19T02:24:17.572Z,31.30
2018-10-19T02:26:47.334Z,25.00
2018-10-19T02:29:17.112Z,26.40
2018-10-19T02:31:46.887Z,23.02
2018-10-19T02:34:16.657Z,23.65
2018-10-19T02:36:46.414Z,23.30
2018-10-19T02:39:16.218Z,23.40
2018-10-19T02:41:46.047Z,29.42
2018-10-19T02:44:15.760Z,24.97
2018-10-19T02:46:45.642Z,24.82
2018-10-19T02:49:15.336Z,29.20
2018-10-19T02:51:45.192Z,23.27
2018-10-19T02:54:14.958Z,26.70
2018-10-19T02:56:44.882Z,32.23
2018-10-19T02:59:14.716Z,28.38
2018-10-19T03:01:44.558Z,25.80
2018-10-19T03:04:14.310Z,29.20
2018-10-19T03:06:44.147Z,24.00
2018-10-19T03:09:13.906Z,31.48
2018-10-19T03:11:43.700Z,24.10
2018-10-19T03:14:13.414Z,20.77
2018-10-19T03:16:43.139Z,24.80
2018-10-19T03:19:12.843Z,28.57
2018-10-19T03:21:43.021Z,24.67
2018-10-19T03:24:12.774Z,24.10
2018-10-19T03:26:42.637Z,28.87
2018-10-19T03:29:12.442Z,26.37
2018-10-19T03:31:42.096Z,24.92
2018-10-19T03:34:11.797Z,24.35
2018-10-19T03:36:41.494Z,25.20
2018-10-19T03:39:11.389Z,25.57
2018-10-19T03:41:41.062Z,22.75
2018-10-19T03:44:10.904Z,25.68
2018-10-19T03:46:40.729Z,26.57
2018-10-19T03:49:10.489Z,27.73
2018-10-19T03:51:40.204Z,22.32
2018-10-19T03:54:10.194Z,28.92
2018-10-19T03:56:39.939Z,22.98
2018-10-19T03:59:09.723Z,28.10
2018-10-19T04:01:39.396Z,28.83
2018-10-19T04:04:09.182Z,27.82
2018-10-19T04:06:38.922Z,26.82
2018-10-19T04:09:12.425Z,25.43
2018-10-19T04:11:42.563Z,27.95
2018-10-19T04:14:13.036Z,24.85
2018-10-19T04:16:42.773Z,29.35
2018-10-19T04:19:13.210Z,28.70
2018-10-19T04:21:43.005Z,25.40
2018-10-19T04:24:12.824Z,26.15
2018-10-19T04:26:42.536Z,28.98
2018-10-19T04:29:12.312Z,28.05
2018-10-19T04:31:42.117Z,26.87
2018-10-19T04:34:12.026Z,29.15
2018-10-19T04:36:41.748Z,28.57
2018-10-19T04:39:11.643Z,30.52
2018-10-19T04:41:41.404Z,30.02
2018-10-19T04:44:11.130Z,31.42
2018-10-19T04:46:41.437Z,29.98
2018-10-19T04:49:11.163Z,28.95
2018-10-19T04:51:40.977Z,32.03
2018-10-19T04:54:10.781Z,31.95
2018-10-19T04:56:40.585Z,31.05
2018-10-19T04:59:10.573Z,34.95
2018-10-19T05:01:40.282Z,33.05
2018-10-19T05:04:10.241Z,30.20
2018-10-19T05:06:40.090Z,28.45
2018-10-19T05:09:11.680Z,31.87
2018-10-19T05:11:41.549Z,33.13
2018-10-19T05:14:11.409Z,34.85
2018-10-19T05:16:41.128Z,30.17
2018-10-19T05:19:11.157Z,34.92
2018-10-19T05:21:40.933Z,30.82
2018-10-19T05:24:10.814Z,31.30
2018-10-19T05:26:40.782Z,36.03
2018-10-19T05:29:10.702Z,32.42
2018-10-19T05:31:41.108Z,30.60
2018-10-19T05:34:10.844Z,30.90
2018-10-19T05:36:40.664Z,33.58
2018-10-19T05:39:10.737Z,26.77
2018-10-19T05:41:40.718Z,28.15
2018-10-19T05:44:10.475Z,26.97
2018-10-19T05:46:40.293Z,29.82
2018-10-19T05:49:10.266Z,29.25
2018-10-19T05:51:40.124Z,29.75
2018-10-19T05:54:09.890Z,32.40
2018-10-19T05:56:39.644Z,26.15
2018-10-19T05:59:09.371Z,29.45
2018-10-19T06:01:39.062Z,24.57
2018-10-19T06:04:08.808Z,29.37
2018-10-19T06:06:38.794Z,31.85
2018-10-19T06:09:10.114Z,32.65
2018-10-19T06:11:40.335Z,30.60
2018-10-19T06:14:10.655Z,33.18
2018-10-19T06:16:40.632Z,28.40
2018-10-19T06:19:11.217Z,26.90
2018-10-19T06:21:41.138Z,30.32
2018-10-19T06:24:10.825Z,27.55
2018-10-19T06:26:40.730Z,30.85
2018-10-19T06:29:10.449Z,30.48
2018-10-19T06:31:40.182Z,24.55
2018-10-19T06:34:10.090Z,25.48
2018-10-19T06:36:39.870Z,28.92
2018-10-19T06:39:11.513Z,27.35
2018-10-19T06:41:41.448Z,23.32
2018-10-19T06:44:11.241Z,24.85
2018-10-19T06:46:41.260Z,27.75
2018-10-19T06:49:11.175Z,26.82
2018-10-19T06:51:40.923Z,32.83
2018-10-19T06:54:10.836Z,29.95
2018-10-19T06:56:40.795Z,28.70
2018-10-19T06:59:10.672Z,28.73
2018-10-19T07:01:40.330Z,29.80
2018-10-19T07:04:10.071Z,30.40
2018-10-19T07:06:39.829Z,30.97
2018-10-19T07:09:09.609Z,25.50
2018-10-19T07:11:39.342Z,26.03
2018-10-19T07:14:09.253Z,28.67
2018-10-19T07:16:38.897Z,23.20
2018-10-19T07:19:08.714Z,25.10
2018-10-19T07:21:38.640Z,23.77
2018-10-19T07:24:08.553Z,34.03
2018-10-19T07:26:38.429Z,22.70
2018-10-19T07:29:08.242Z,28.10
2018-10-19T07:31:38.168Z,29.07
2018-10-19T07:34:07.959Z,26.63
2018-10-19T07:36:37.683Z,26.17
2018-10-19T07:39:09.349Z,26.93
2018-10-19T07:41:39.096Z,26.50
2018-10-19T07:44:08.950Z,27.03
2018-10-19T07:46:38.778Z,24.03
2018-10-19T07:49:08.552Z,25.50
2018-10-19T07:51:38.223Z,26.37
2018-10-19T07:54:07.972Z,20.73
2018-10-19T07:56:37.769Z,22.43
2018-10-19T07:59:08.329Z,35.93
2018-10-19T08:01:38.406Z,23.70
2018-10-19T08:04:08.394Z,21.93
2018-10-19T08:06:38.223Z,25.10
2018-10-19T08:09:11.067Z,21.40
2018-10-19T08:11:40.899Z,21.90
2018-10-19T08:14:10.640Z,19.67
2018-10-19T08:16:40.296Z,23.27
2018-10-19T08:19:10.000Z,20.30
2018-10-19T08:21:40.906Z,19.97
2018-10-19T08:24:10.627Z,20.40
2018-10-19T08:26:40.409Z,23.70
2018-10-19T08:29:10.241Z,24.43
2018-10-19T08:31:39.901Z,18.83
2018-10-19T08:34:09.615Z,21.63
2018-10-19T08:36:39.384Z,24.03
2018-10-19T08:39:09.406Z,26.07
2018-10-19T08:41:39.171Z,23.77
2018-10-19T08:44:08.882Z,24.93
2018-10-19T08:46:39.425Z,25.77
2018-10-19T08:49:10.951Z,27.40
2018-10-19T08:51:41.473Z,20.47
2018-10-19T08:54:11.422Z,21.83
2018-10-19T08:56:41.527Z,25.30
2018-10-19T08:59:11.334Z,22.43
2018-10-19T09:01:40.983Z,23.57
2018-10-19T09:04:10.937Z,26.03
2018-10-19T09:06:40.575Z,28.73
2018-10-19T09:09:11.821Z,24.27
2018-10-19T09:11:42.020Z,25.00
2018-10-19T09:14:28.252Z,24.70
2018-10-19T09:16:58.085Z,21.33
2018-10-19T09:19:27.805Z,24.33
2018-10-19T09:21:57.576Z,21.33
2018-10-19T09:24:27.550Z,23.30
2018-10-19T09:26:57.264Z,22.37
2018-10-19T09:29:27.090Z,22.60
2018-10-19T09:31:56.799Z,20.43
2018-10-19T09:34:26.527Z,23.20
2018-10-19T09:36:56.440Z,21.10
2018-10-19T09:39:26.130Z,19.57
2018-10-19T09:41:56.009Z,21.27
2018-10-19T09:44:25.713Z,19.87
2018-10-19T09:46:55.470Z,21.80
2018-10-19T09:49:25.252Z,20.13
2018-10-19T09:51:55.022Z,21.00
2018-10-19T09:54:24.735Z,22.47
2018-10-19T09:56:54.451Z,20.10
2018-10-19T09:59:24.166Z,21.57
2018-10-19T10:01:53.848Z,19.60
2018-10-19T10:04:23.559Z,20.30
2018-10-19T10:06:53.313Z,20.90
2018-10-19T10:09:23.015Z,24.57
2018-10-19T10:11:52.755Z,22.10
2018-10-19T10:14:22.658Z,22.00
2018-10-19T10:16:52.626Z,21.60
2018-10-19T10:19:22.336Z,24.20
2018-10-19T10:21:53.070Z,23.50
2018-10-19T10:24:22.906Z,24.50
2018-10-19T10:26:52.781Z,25.60
2018-10-19T10:29:22.588Z,26.13
2018-10-19T10:31:52.377Z,23.10
2018-10-19T10:34:22.191Z,24.93
2018-10-19T10:36:51.925Z,24.50
2018-10-19T10:39:21.766Z,22.63
2018-10-19T10:41:51.472Z,21.93
2018-10-19T10:44:21.839Z,27.87
2018-10-19T10:46:51.613Z,25.00
2018-10-19T10:49:21.277Z,32.10
2018-10-19T10:51:50.997Z,27.07
2018-10-19T10:54:20.825Z,31.90
2018-10-19T10:56:50.628Z,32.57
2018-10-19T10:59:20.461Z,29.80
2018-10-19T11:01:50.238Z,34.00
2018-10-19T11:04:19.955Z,39.37
2018-10-19T11:06:49.803Z,39.53
2018-10-19T11:09:19.540Z,34.10
2018-10-19T11:11:49.299Z,31.83
2018-10-19T11:14:19.046Z,31.33
2018-10-19T11:16:48.771Z,28.60
2018-10-19T11:19:18.579Z,33.70
2018-10-19T11:21:48.465Z,31.40
2018-10-19T11:24:18.293Z,30.50
2018-10-19T11:26:48.057Z,32.53
2018-10-19T11:29:17.765Z,32.83
2018-10-19T11:31:47.432Z,29.87
2018-10-19T11:34:17.224Z,32.43
2018-10-19T11:36:46.865Z,34.90
2018-10-19T11:39:16.653Z,34.17
2018-10-19T11:41:46.477Z,38.00
2018-10-19T11:44:16.149Z,33.33
2018-10-19T11:46:45.941Z,33.63
2018-10-19T11:49:15.847Z,29.83
2018-10-19T11:51:45.480Z,35.30
2018-10-19T11:54:15.242Z,36.20
2018-10-19T11:56:44.932Z,33.10
2018-10-19T11:59:14.716Z,39.20
2018-10-19T12:01:44.541Z,39.13
2018-10-19T12:04:14.349Z,33.33
2018-10-19T12:06:44.028Z,35.73
2018-10-19T12:09:13.717Z,33.00
2018-10-19T12:11:43.510Z,33.83
2018-10-19T12:14:16.180Z,32.70
2018-10-19T12:16:46.058Z,31.83
2018-10-19T12:19:15.785Z,34.57
2018-10-19T12:21:45.493Z,37.10
2018-10-19T12:24:15.378Z,37.70
2018-10-19T12:26:45.090Z,32.43
2018-10-19T12:29:15.444Z,31.87
2018-10-19T12:31:45.351Z,34.93
2018-10-19T12:34:15.117Z,24.43
2018-10-19T12:36:44.840Z,22.23
2018-10-19T12:39:14.620Z,24.70
2018-10-19T12:41:44.365Z,23.97
2018-10-19T12:44:14.027Z,22.17
2018-10-19T12:47:00.486Z,23.90
2018-10-19T12:49:30.348Z,27.60
2018-10-19T12:52:00.071Z,26.17
2018-10-19T12:54:29.861Z,27.40
2018-10-19T12:56:59.747Z,26.63
2018-10-19T12:59:29.650Z,21.33
2018-10-19T13:01:59.519Z,24.63
2018-10-19T13:04:29.222Z,22.33
2018-10-19T13:06:59.142Z,19.70
2018-10-19T13:09:28.769Z,20.37
2018-10-19T13:11:58.709Z,22.77
2018-10-19T13:14:28.416Z,21.67
2018-10-19T13:16:58.214Z,24.90
2018-10-19T13:19:27.941Z,21.40
2018-10-19T13:21:57.790Z,22.90
2018-10-19T13:24:27.527Z,24.77
2018-10-19T13:26:57.358Z,20.47
2018-10-19T13:29:27.070Z,24.70
2018-10-19T13:31:56.797Z,25.03
2018-10-19T13:34:26.590Z,24.00
2018-10-19T13:36:56.337Z,21.90
2018-10-19T13:39:26.188Z,23.03
2018-10-19T13:41:56.017Z,23.90
2018-10-19T13:44:25.831Z,24.67
2018-10-19T13:46:55.667Z,23.20
2018-10-19T13:49:25.486Z,22.70
2018-10-19T13:51:55.226Z,20.43
2018-10-19T13:54:25.134Z,21.40
2018-10-19T13:56:54.890Z,24.70
2018-10-19T13:59:24.567Z,23.77
2018-10-19T14:01:54.283Z,20.87
2018-10-19T14:04:24.088Z,23.40
2018-10-19T14:06:53.828Z,23.53
2018-10-19T14:09:23.562Z,28.73
2018-10-19T14:11:53.474Z,25.50
2018-10-19T14:14:23.217Z,21.50
2018-10-19T14:16:53.072Z,20.70
2018-10-19T14:19:22.850Z,23.90
2018-10-19T14:21:52.641Z,21.97
2018-10-19T14:24:22.395Z,23.17
2018-10-19T14:26:52.130Z,20.07
2018-10-19T14:29:21.841Z,20.93
2018-10-19T14:31:51.570Z,21.80
2018-10-19T14:34:21.357Z,19.37
2018-10-19T14:36:51.169Z,21.87
2018-10-19T14:39:20.893Z,25.93
2018-10-19T14:41:50.628Z,20.00
2018-10-19T14:44:20.567Z,20.70
2018-10-19T14:46:50.341Z,22.90
2018-10-19T14:49:20.247Z,20.43
2018-10-19T14:51:50.103Z,21.50
2018-10-19T14:54:19.815Z,19.33
2018-10-19T14:56:49.618Z,16.73
2018-10-19T14:59:19.585Z,23.87
2018-10-19T15:01:49.429Z,18.93
2018-10-19T15:04:19.125Z,18.50
2018-10-19T15:06:49.061Z,24.23
2018-10-19T15:09:18.803Z,18.33
2018-10-19T15:11:48.865Z,21.13
2018-10-19T15:14:18.228Z,19.43
2018-10-19T15:16:48.191Z,20.43
2018-10-19T15:19:17.894Z,21.87
2018-10-19T15:21:47.732Z,17.37
2018-10-19T15:24:17.591Z,23.83
2018-10-19T15:26:47.193Z,17.20
2018-10-19T15:29:16.970Z,18.63
2018-10-19T15:31:46.583Z,17.30
2018-10-19T15:34:16.283Z,18.10
2018-10-19T15:36:46.240Z,19.50
2018-10-19T15:39:16.090Z,19.30
2018-10-19T15:41:45.869Z,17.33
2018-10-19T15:44:15.652Z,18.93
2018-10-19T15:46:45.468Z,20.60
2018-10-19T15:49:15.193Z,19.83
2018-10-19T15:51:44.913Z,21.00
2018-10-19T15:54:14.849Z,20.57
2018-10-19T15:56:44.631Z,20.50
2018-10-19T15:59:14.282Z,22.53
2018-10-19T16:01:44.093Z,20.33
2018-10-19T16:04:13.805Z,18.90
2018-10-19T16:06:43.670Z,19.73
2018-10-19T16:09:14.782Z,22.20
2018-10-19T16:11:45.009Z,20.90
2018-10-19T16:14:14.867Z,21.73
2018-10-19T16:16:44.664Z,16.27
2018-10-19T16:19:14.405Z,19.70
2018-10-19T16:21:44.194Z,19.33
2018-10-19T16:24:14.047Z,17.53
2018-10-19T16:26:43.726Z,18.63
2018-10-19T16:29:13.457Z,16.97
2018-10-19T16:31:43.196Z,19.17
2018-10-19T16:34:12.910Z,17.60
2018-10-19T16:36:42.756Z,19.50
2018-10-19T16:39:13.735Z,16.27
2018-10-19T16:41:43.373Z,17.83
2018-10-19T16:44:13.062Z,19.50
2018-10-19T16:46:42.888Z,18.90
2018-10-19T16:49:12.604Z,19.37
2018-10-19T16:51:42.333Z,20.73
2018-10-19T16:54:12.084Z,23.13
2018-10-19T16:56:41.775Z,20.40
2018-10-19T16:59:11.504Z,20.90
2018-10-19T17:01:41.289Z,20.50
2018-10-19T17:04:11.117Z,20.03
2018-10-19T17:06:40.802Z,17.07
2018-10-19T17:09:13.514Z,20.13
2018-10-19T17:11:43.590Z,20.03
2018-10-19T17:14:13.313Z,18.57
2018-10-19T17:16:43.105Z,24.50
2018-10-19T17:19:12.998Z,23.07
2018-10-19T17:21:42.799Z,27.40
2018-10-19T17:24:12.743Z,28.00
2018-10-19T17:26:42.484Z,23.03
2018-10-19T17:29:12.388Z,26.47
2018-10-19T17:31:42.197Z,23.13
2018-10-19T17:34:12.105Z,23.00
2018-10-19T17:36:41.884Z,25.73
2018-10-19T17:39:12.220Z,27.13
2018-10-19T17:41:41.891Z,29.17
2018-10-19T17:44:11.663Z,27.03
2018-10-19T17:46:41.414Z,26.50
2018-10-19T17:49:11.371Z,29.87
2018-10-19T17:51:41.209Z,30.90
2018-10-19T17:54:11.047Z,27.30
2018-10-19T17:56:41.654Z,23.67
2018-10-19T17:59:11.729Z,26.93
2018-10-19T18:01:41.487Z,32.50
2018-10-19T18:04:11.297Z,29.97
2018-10-19T18:06:41.181Z,29.93
2018-10-19T18:09:12.573Z,32.07
2018-10-19T18:11:42.661Z,26.50
2018-10-19T18:14:12.821Z,33.77
2018-10-19T18:16:42.987Z,30.40
2018-10-19T18:19:12.789Z,30.00
2018-10-19T18:21:42.830Z,29.77
2018-10-19T18:24:12.555Z,28.27
2018-10-19T18:26:42.405Z,28.23
2018-10-19T18:29:12.454Z,28.73
2018-10-19T18:31:42.206Z,27.87
2018-10-19T18:34:12.025Z,28.43
2018-10-19T18:36:42.008Z,24.30
2018-10-19T18:39:13.681Z,27.33
2018-10-19T18:41:44.279Z,22.90
2018-10-19T18:44:14.249Z,24.20
2018-10-19T18:46:44.465Z,24.10
2018-10-19T18:49:14.282Z,22.93
2018-10-19T18:51:44.195Z,27.03
2018-10-19T18:54:13.977Z,24.90
2018-10-19T18:56:43.953Z,24.93
2018-10-19T18:59:13.767Z,24.90
2018-10-19T19:01:43.480Z,24.17
2018-10-19T19:04:13.318Z,23.47
2018-10-19T19:06:43.183Z,28.80
2018-10-19T19:09:14.501Z,22.80
2018-10-19T19:11:44.446Z,24.97
2018-10-19T19:14:14.423Z,26.83
2018-10-19T19:16:44.341Z,25.60
2018-10-19T19:19:14.144Z,26.10
2018-10-19T19:21:43.997Z,28.60
2018-10-19T19:24:19.089Z,26.60
2018-10-19T19:26:48.860Z,30.23
2018-10-19T19:29:18.739Z,28.43
2018-10-19T19:31:48.678Z,29.03
2018-10-19T19:34:33.334Z,27.73
2018-10-19T19:37:03.171Z,28.63
2018-10-19T19:39:33.099Z,32.33
2018-10-19T19:42:08.757Z,32.80
2018-10-19T19:44:38.625Z,29.43
2018-10-19T19:47:12.783Z,27.53
2018-10-19T19:49:42.554Z,30.20
2018-10-19T19:52:12.346Z,28.83
2018-10-19T19:54:42.158Z,26.93
2018-10-19T19:57:12.972Z,35.43
2018-10-19T19:59:43.645Z,27.67
2018-10-19T20:02:14.279Z,30.53
2018-10-19T20:04:44.252Z,31.40
2018-10-19T20:07:14.107Z,35.60
2018-10-19T20:09:43.888Z,29.20
2018-10-19T20:12:13.714Z,33.10
2018-10-19T20:14:43.532Z,34.83
2018-10-19T20:17:13.941Z,32.63
2018-10-19T20:19:43.700Z,35.30
2018-10-19T20:22:13.499Z,31.23
2018-10-19T20:24:43.393Z,33.60
2018-10-19T20:27:13.257Z,35.70
2018-10-19T20:29:43.045Z,32.27
2018-10-19T20:32:12.877Z,34.73
2018-10-19T20:34:42.549Z,33.77
2018-10-19T20:37:12.295Z,33.83
2018-10-19T20:39:42.025Z,48.37
2018-10-19T20:42:12.029Z,37.03
2018-10-19T20:44:41.856Z,41.60
2018-10-19T20:47:11.749Z,39.47
2018-10-19T20:49:41.429Z,39.33
2018-10-19T20:52:11.178Z,39.47
2018-10-19T20:54:40.923Z,42.87
2018-10-19T20:57:10.690Z,44.50
2018-10-19T20:59:40.417Z,47.37
2018-10-19T21:02:10.341Z,43.63
2018-10-19T21:04:40.266Z,46.33
2018-10-19T21:07:10.059Z,45.40
2018-10-19T21:09:39.805Z,50.07
2018-10-19T21:12:09.631Z,53.77
2018-10-19T21:14:39.422Z,50.47
2018-10-19T21:17:09.211Z,47.73
2018-10-19T21:19:38.909Z,48.67
2018-10-19T21:22:08.858Z,51.10
2018-10-19T21:24:38.693Z,53.33
2018-10-19T21:27:08.708Z,52.70
2018-10-19T21:29:38.448Z,47.07
2018-10-19T21:32:08.634Z,51.40
2018-10-19T21:34:38.367Z,58.60
2018-10-19T21:37:08.147Z,60.73
2018-10-19T21:42:03.730Z,54.80
2018-10-19T21:44:33.597Z,63.30
2018-10-19T21:47:03.465Z,61.68
2018-10-19T21:49:33.322Z,76.28
2018-10-19T21:52:03.090Z,76.70
2018-10-19T21:54:33.000Z,68.53
2018-10-19T21:57:02.773Z,55.78
2018-10-19T21:59:32.585Z,55.97
2018-10-19T22:02:02.426Z,64.83
2018-10-19T22:04:32.154Z,80.07
2018-10-19T22:07:01.975Z,69.20
2018-10-19T22:09:31.745Z,68.20
2018-10-19T22:12:01.465Z,55.07
2018-10-19T22:14:31.208Z,54.88
2018-10-19T22:17:01.066Z,59.30
2018-10-19T22:19:31.021Z,53.17
2018-10-19T22:22:00.773Z,63.98
2018-10-19T22:24:30.576Z,48.60
2018-10-19T22:27:00.400Z,56.73
2018-10-19T22:29:30.164Z,47.87
2018-10-19T22:31:59.930Z,54.30
2018-10-19T22:34:29.960Z,51.42
2018-10-19T22:36:59.852Z,40.85
2018-10-19T22:39:29.745Z,48.28
2018-10-19T22:41:59.621Z,49.63
2018-10-19T22:44:29.466Z,49.42
2018-10-19T22:46:59.543Z,54.65
2018-10-19T22:49:29.587Z,51.88
2018-10-19T22:51:59.354Z,50.20
2018-10-19T22:54:29.111Z,46.13
2018-10-19T22:56:58.940Z,60.15
2018-10-19T22:59:28.708Z,55.10
2018-10-19T23:01:58.674Z,54.13
2018-10-19T23:04:28.598Z,65.65
2018-10-19T23:06:58.608Z,61.68
2018-10-19T23:09:28.458Z,53.28
2018-10-19T23:11:58.339Z,48.95
2018-10-19T23:14:28.932Z,48.23
2018-10-19T23:16:58.822Z,48.17
2018-10-19T23:19:28.692Z,45.48
2018-10-19T23:21:58.973Z,43.98
2018-10-19T23:24:28.830Z,46.73
2018-10-19T23:26:58.705Z,56.60
2018-10-19T23:29:28.611Z,46.77
2018-10-19T23:31:58.458Z,48.30
2018-10-19T23:34:28.449Z,42.98
2018-10-19T23:36:58.523Z,48.00
2018-10-19T23:39:28.379Z,49.70
2018-10-19T23:41:58.148Z,51.83
2018-10-19T23:44:27.892Z,61.40
2018-10-19T23:46:57.616Z,49.15
2018-10-19T23:49:27.500Z,47.73
2018-10-19T23:51:57.326Z,47.55
2018-10-19T23:54:27.010Z,52.60
2018-10-19T23:56:57.065Z,47.33
2018-10-19T23:59:26.794Z,50.38
